sensor_id;sensor_type;location;lat;lon;timestamp;P1;durP1;ratioP1;P2;durP2;ratioP2
7621;SDS011;3852;52.284;8.032;2022-07-09T00:01:14;11.80;;;10.60;;
7621;SDS011;3852;52.284;8.032;2022-07-09T00:03:40;12.70;;;9.53;;
7621;SDS011;3852;52.284;8.032;2022-07-09T00:06:05;11.00;;;9.83;;
7621;SDS011;3852;52.284;8.032;2022-07-09T00:08:31;12.93;;;10.37;;
7621;SDS011;3852;52.284;8.032;2022-07-09T00:10:57;10.90;;;9.43;;
7621;SDS011;3852;52.284;8.032;2022-07-09T00:13:23;10.53;;;9.47;;
7621;SDS011;3852;52.284;8.032;2022-07-09T00:15:49;10.63;;;9.57;;
7621;SDS011;3852;52.284;8.032;2022-07-09T00:18:15;12.10;;;10.77;;
7621;SDS011;3852;52.284;8.032;2022-07-09T00:20:41;13.50;;;10.53;;
7621;SDS011;3852;52.284;8.032;2022-07-09T00:23:07;12.93;;;9.87;;
7621;SDS011;3852;52.284;8.032;2022-07-09T00:25:32;10.60;;;9.50;;
7621;SDS011;3852;52.284;8.032;2022-07-09T00:27:58;9.87;;;8.97;;
7621;SDS011;3852;52.284;8.032;2022-07-09T00:30:26;14.77;;;10.50;;
7621;SDS011;3852;52.284;8.032;2022-07-09T00:32:52;11.43;;;10.23;;
7621;SDS011;3852;52.284;8.032;2022-07-09T00:35:21;11.03;;;10.03;;
7621;SDS011;3852;52.284;8.032;2022-07-09T00:37:47;11.17;;;9.73;;
7621;SDS011;3852;52.284;8.032;2022-07-09T00:40:13;12.40;;;10.07;;
7621;SDS011;3852;52.284;8.032;2022-07-09T00:42:39;14.03;;;10.30;;
7621;SDS011;3852;52.284;8.032;2022-07-09T00:45:05;12.53;;;10.33;;
7621;SDS011;3852;52.284;8.032;2022-07-09T00:47:32;11.87;;;10.53;;
7621;SDS011;3852;52.284;8.032;2022-07-09T00:49:57;12.40;;;10.40;;
7621;SDS011;3852;52.284;8.032;2022-07-09T00:52:24;11.03;;;9.87;;
7621;SDS011;3852;52.284;8.032;2022-07-09T00:54:50;12.07;;;10.63;;
7621;SDS011;3852;52.284;8.032;2022-07-09T00:57:16;12.03;;;10.37;;
7621;SDS011;3852;52.284;8.032;2022-07-09T00:59:45;11.47;;;10.37;;
7621;SDS011;3852;52.284;8.032;2022-07-09T01:02:11;12.43;;;9.93;;
7621;SDS011;3852;52.284;8.032;2022-07-09T01:04:36;13.43;;;11.07;;
7621;SDS011;3852;52.284;8.032;2022-07-09T01:07:04;12.50;;;10.10;;
7621;SDS011;3852;52.284;8.032;2022-07-09T01:09:30;16.90;;;11.33;;
7621;SDS011;3852;52.284;8.032;2022-07-09T01:11:59;15.10;;;10.60;;
7621;SDS011;3852;52.284;8.032;2022-07-09T01:14:25;11.73;;;10.50;;
7621;SDS011;3852;52.284;8.032;2022-07-09T01:17:03;11.70;;;10.50;;
7621;SDS011;3852;52.284;8.032;2022-07-09T01:19:31;12.17;;;10.87;;
7621;SDS011;3852;52.284;8.032;2022-07-09T01:21:59;14.67;;;11.07;;
7621;SDS011;3852;52.284;8.032;2022-07-09T01:24:25;15.27;;;10.57;;
7621;SDS011;3852;52.284;8.032;2022-07-09T01:26:52;16.93;;;11.70;;
7621;SDS011;3852;52.284;8.032;2022-07-09T01:29:19;11.93;;;10.63;;
7621;SDS011;3852;52.284;8.032;2022-07-09T01:31:46;14.37;;;10.70;;
7621;SDS011;3852;52.284;8.032;2022-07-09T01:34:11;14.30;;;10.97;;
7621;SDS011;3852;52.284;8.032;2022-07-09T01:36:40;14.97;;;11.57;;
7621;SDS011;3852;52.284;8.032;2022-07-09T01:39:05;14.07;;;11.30;;
7621;SDS011;3852;52.284;8.032;2022-07-09T01:41:31;14.57;;;12.20;;
7621;SDS011;3852;52.284;8.032;2022-07-09T01:43:57;16.47;;;12.77;;
7621;SDS011;3852;52.284;8.032;2022-07-09T01:46:23;18.30;;;11.93;;
7621;SDS011;3852;52.284;8.032;2022-07-09T01:48:49;13.17;;;11.33;;
7621;SDS011;3852;52.284;8.032;2022-07-09T01:51:18;13.60;;;11.80;;
7621;SDS011;3852;52.284;8.032;2022-07-09T01:53:44;15.53;;;12.47;;
7621;SDS011;3852;52.284;8.032;2022-07-09T01:56:12;16.57;;;12.40;;
7621;SDS011;3852;52.284;8.032;2022-07-09T01:58:42;22.10;;;13.33;;
7621;SDS011;3852;52.284;8.032;2022-07-09T02:01:09;16.77;;;12.23;;
7621;SDS011;3852;52.284;8.032;2022-07-09T02:03:35;15.93;;;13.13;;
7621;SDS011;3852;52.284;8.032;2022-07-09T02:06:00;15.07;;;13.43;;
7621;SDS011;3852;52.284;8.032;2022-07-09T02:08:26;17.23;;;13.23;;
7621;SDS011;3852;52.284;8.032;2022-07-09T02:10:52;17.63;;;13.43;;
7621;SDS011;3852;52.284;8.032;2022-07-09T02:13:19;21.53;;;14.00;;
7621;SDS011;3852;52.284;8.032;2022-07-09T02:15:45;18.77;;;14.80;;
7621;SDS011;3852;52.284;8.032;2022-07-09T02:18:11;15.10;;;13.47;;
7621;SDS011;3852;52.284;8.032;2022-07-09T02:20:37;20.00;;;14.67;;
7621;SDS011;3852;52.284;8.032;2022-07-09T02:23:03;20.57;;;14.23;;
7621;SDS011;3852;52.284;8.032;2022-07-09T02:25:33;25.63;;;15.23;;
7621;SDS011;3852;52.284;8.032;2022-07-09T02:27:58;21.47;;;15.47;;
7621;SDS011;3852;52.284;8.032;2022-07-09T02:30:24;20.17;;;15.33;;
7621;SDS011;3852;52.284;8.032;2022-07-09T02:32:50;22.57;;;16.17;;
7621;SDS011;3852;52.284;8.032;2022-07-09T02:35:16;24.07;;;16.07;;
7621;SDS011;3852;52.284;8.032;2022-07-09T02:37:42;20.70;;;15.50;;
7621;SDS011;3852;52.284;8.032;2022-07-09T02:40:08;23.03;;;16.17;;
7621;SDS011;3852;52.284;8.032;2022-07-09T02:42:34;19.73;;;15.40;;
7621;SDS011;3852;52.284;8.032;2022-07-09T02:45:01;22.37;;;17.27;;
7621;SDS011;3852;52.284;8.032;2022-07-09T02:47:28;24.53;;;17.77;;
7621;SDS011;3852;52.284;8.032;2022-07-09T02:49:54;21.07;;;16.73;;
7621;SDS011;3852;52.284;8.032;2022-07-09T02:52:20;23.83;;;17.53;;
7621;SDS011;3852;52.284;8.032;2022-07-09T02:54:45;26.70;;;17.90;;
7621;SDS011;3852;52.284;8.032;2022-07-09T02:57:11;26.67;;;18.83;;
7621;SDS011;3852;52.284;8.032;2022-07-09T02:59:38;27.67;;;18.57;;
7621;SDS011;3852;52.284;8.032;2022-07-09T03:02:04;21.83;;;17.13;;
7621;SDS011;3852;52.284;8.032;2022-07-09T03:04:30;30.17;;;19.47;;
7621;SDS011;3852;52.284;8.032;2022-07-09T03:06:56;28.03;;;19.67;;
7621;SDS011;3852;52.284;8.032;2022-07-09T03:09:22;31.10;;;19.37;;
7621;SDS011;3852;52.284;8.032;2022-07-09T03:11:47;26.27;;;18.73;;
7621;SDS011;3852;52.284;8.032;2022-07-09T03:14:13;30.13;;;20.47;;
7621;SDS011;3852;52.284;8.032;2022-07-09T03:16:39;34.97;;;21.93;;
7621;SDS011;3852;52.284;8.032;2022-07-09T03:19:05;44.43;;;24.03;;
7621;SDS011;3852;52.284;8.032;2022-07-09T03:21:31;38.67;;;23.00;;
7621;SDS011;3852;52.284;8.032;2022-07-09T03:23:57;37.23;;;22.20;;
7621;SDS011;3852;52.284;8.032;2022-07-09T03:26:23;38.27;;;24.30;;
7621;SDS011;3852;52.284;8.032;2022-07-09T03:28:49;33.23;;;21.60;;
7621;SDS011;3852;52.284;8.032;2022-07-09T03:31:14;31.27;;;20.93;;
7621;SDS011;3852;52.284;8.032;2022-07-09T03:33:40;31.13;;;20.87;;
7621;SDS011;3852;52.284;8.032;2022-07-09T03:36:06;44.70;;;23.77;;
7621;SDS011;3852;52.284;8.032;2022-07-09T03:38:33;40.43;;;24.17;;
7621;SDS011;3852;52.284;8.032;2022-07-09T03:40:59;34.80;;;22.50;;
7621;SDS011;3852;52.284;8.032;2022-07-09T03:43:25;34.57;;;22.00;;
7621;SDS011;3852;52.284;8.032;2022-07-09T03:45:51;41.70;;;23.30;;
7621;SDS011;3852;52.284;8.032;2022-07-09T03:48:16;44.23;;;25.07;;
7621;SDS011;3852;52.284;8.032;2022-07-09T03:50:42;39.97;;;24.17;;
7621;SDS011;3852;52.284;8.032;2022-07-09T03:53:08;41.23;;;24.60;;
7621;SDS011;3852;52.284;8.032;2022-07-09T03:55:34;37.47;;;22.87;;
7621;SDS011;3852;52.284;8.032;2022-07-09T03:58:00;33.97;;;21.93;;
7621;SDS011;3852;52.284;8.032;2022-07-09T04:00:26;35.63;;;21.80;;
7621;SDS011;3852;52.284;8.032;2022-07-09T04:02:53;27.27;;;19.73;;
7621;SDS011;3852;52.284;8.032;2022-07-09T04:05:21;36.50;;;21.03;;
7621;SDS011;3852;52.284;8.032;2022-07-09T04:07:47;32.60;;;21.23;;
7621;SDS011;3852;52.284;8.032;2022-07-09T04:10:13;31.43;;;20.57;;
7621;SDS011;3852;52.284;8.032;2022-07-09T04:12:39;35.63;;;20.33;;
7621;SDS011;3852;52.284;8.032;2022-07-09T04:15:05;33.60;;;19.30;;
7621;SDS011;3852;52.284;8.032;2022-07-09T04:17:31;29.77;;;19.27;;
7621;SDS011;3852;52.284;8.032;2022-07-09T04:19:57;26.90;;;18.23;;
7621;SDS011;3852;52.284;8.032;2022-07-09T04:22:23;28.67;;;19.73;;
7621;SDS011;3852;52.284;8.032;2022-07-09T04:24:48;33.37;;;20.60;;
7621;SDS011;3852;52.284;8.032;2022-07-09T04:27:14;27.33;;;19.27;;
7621;SDS011;3852;52.284;8.032;2022-07-09T04:29:40;29.67;;;20.83;;
7621;SDS011;3852;52.284;8.032;2022-07-09T04:32:06;29.40;;;18.70;;
7621;SDS011;3852;52.284;8.032;2022-07-09T04:34:32;28.17;;;18.93;;
7621;SDS011;3852;52.284;8.032;2022-07-09T04:36:58;29.43;;;19.67;;
7621;SDS011;3852;52.284;8.032;2022-07-09T04:39:23;27.50;;;18.70;;
7621;SDS011;3852;52.284;8.032;2022-07-09T04:41:53;26.83;;;19.23;;
7621;SDS011;3852;52.284;8.032;2022-07-09T04:44:19;24.87;;;18.67;;
7621;SDS011;3852;52.284;8.032;2022-07-09T04:46:47;26.83;;;18.00;;
7621;SDS011;3852;52.284;8.032;2022-07-09T04:49:13;28.17;;;19.20;;
7621;SDS011;3852;52.284;8.032;2022-07-09T04:51:38;24.23;;;18.33;;
7621;SDS011;3852;52.284;8.032;2022-07-09T04:54:04;27.87;;;18.57;;
7621;SDS011;3852;52.284;8.032;2022-07-09T04:56:30;24.37;;;17.37;;
7621;SDS011;3852;52.284;8.032;2022-07-09T04:58:56;23.03;;;16.70;;
7621;SDS011;3852;52.284;8.032;2022-07-09T05:01:24;25.93;;;18.50;;
7621;SDS011;3852;52.284;8.032;2022-07-09T05:03:50;25.53;;;16.67;;
7621;SDS011;3852;52.284;8.032;2022-07-09T05:06:16;22.27;;;16.67;;
7621;SDS011;3852;52.284;8.032;2022-07-09T05:08:43;24.27;;;15.60;;
7621;SDS011;3852;52.284;8.032;2022-07-09T05:11:08;22.27;;;15.70;;
7621;SDS011;3852;52.284;8.032;2022-07-09T05:13:37;19.53;;;14.83;;
7621;SDS011;3852;52.284;8.032;2022-07-09T05:16:05;19.93;;;14.63;;
7621;SDS011;3852;52.284;8.032;2022-07-09T05:18:32;20.50;;;14.10;;
7621;SDS011;3852;52.284;8.032;2022-07-09T05:20:58;16.60;;;13.47;;
7621;SDS011;3852;52.284;8.032;2022-07-09T05:23:26;19.43;;;13.47;;
7621;SDS011;3852;52.284;8.032;2022-07-09T05:25:52;14.93;;;12.53;;
7621;SDS011;3852;52.284;8.032;2022-07-09T05:28:18;16.80;;;12.00;;
7621;SDS011;3852;52.284;8.032;2022-07-09T05:30:44;18.57;;;11.80;;
7621;SDS011;3852;52.284;8.032;2022-07-09T05:33:10;15.87;;;11.30;;
7621;SDS011;3852;52.284;8.032;2022-07-09T05:35:36;14.27;;;10.17;;
7621;SDS011;3852;52.284;8.032;2022-07-09T05:38:02;13.43;;;10.87;;
7621;SDS011;3852;52.284;8.032;2022-07-09T05:40:28;11.90;;;10.30;;
7621;SDS011;3852;52.284;8.032;2022-07-09T05:42:53;13.03;;;9.83;;
7621;SDS011;3852;52.284;8.032;2022-07-09T05:45:20;12.93;;;9.97;;
7621;SDS011;3852;52.284;8.032;2022-07-09T05:47:46;12.53;;;9.00;;
7621;SDS011;3852;52.284;8.032;2022-07-09T05:50:11;10.57;;;8.97;;
7621;SDS011;3852;52.284;8.032;2022-07-09T05:52:37;11.33;;;8.50;;
7621;SDS011;3852;52.284;8.032;2022-07-09T05:55:03;13.43;;;8.10;;
7621;SDS011;3852;52.284;8.032;2022-07-09T05:57:30;11.70;;;8.77;;
7621;SDS011;3852;52.284;8.032;2022-07-09T05:59:59;9.50;;;8.40;;
7621;SDS011;3852;52.284;8.032;2022-07-09T06:02:25;8.63;;;7.43;;
7621;SDS011;3852;52.284;8.032;2022-07-09T06:04:53;9.30;;;7.57;;
7621;SDS011;3852;52.284;8.032;2022-07-09T06:07:18;9.00;;;8.10;;
7621;SDS011;3852;52.284;8.032;2022-07-09T06:09:44;12.50;;;8.10;;
7621;SDS011;3852;52.284;8.032;2022-07-09T06:12:10;8.03;;;7.27;;
7621;SDS011;3852;52.284;8.032;2022-07-09T06:14:36;10.90;;;7.47;;
7621;SDS011;3852;52.284;8.032;2022-07-09T06:17:02;8.70;;;6.73;;
7621;SDS011;3852;52.284;8.032;2022-07-09T06:19:34;8.77;;;7.37;;
7621;SDS011;3852;52.284;8.032;2022-07-09T06:22:03;7.13;;;6.27;;
7621;SDS011;3852;52.284;8.032;2022-07-09T06:24:29;8.57;;;6.63;;
7621;SDS011;3852;52.284;8.032;2022-07-09T06:26:55;9.87;;;5.73;;
7621;SDS011;3852;52.284;8.032;2022-07-09T06:29:21;6.70;;;6.00;;
7621;SDS011;3852;52.284;8.032;2022-07-09T06:31:47;7.00;;;5.93;;
7621;SDS011;3852;52.284;8.032;2022-07-09T06:34:13;6.73;;;5.70;;
7621;SDS011;3852;52.284;8.032;2022-07-09T06:36:39;8.23;;;6.20;;
7621;SDS011;3852;52.284;8.032;2022-07-09T06:39:06;5.43;;;4.93;;
7621;SDS011;3852;52.284;8.032;2022-07-09T06:41:50;5.47;;;5.00;;
7621;SDS011;3852;52.284;8.032;2022-07-09T06:44:16;5.87;;;4.43;;
7621;SDS011;3852;52.284;8.032;2022-07-09T06:46:42;4.90;;;4.27;;
7621;SDS011;3852;52.284;8.032;2022-07-09T06:49:07;5.27;;;4.20;;
7621;SDS011;3852;52.284;8.032;2022-07-09T06:51:33;4.97;;;4.33;;
7621;SDS011;3852;52.284;8.032;2022-07-09T06:53:59;7.30;;;3.87;;
7621;SDS011;3852;52.284;8.032;2022-07-09T06:56:25;3.63;;;3.30;;
7621;SDS011;3852;52.284;8.032;2022-07-09T06:58:51;4.07;;;3.40;;
7621;SDS011;3852;52.284;8.032;2022-07-09T07:01:17;4.60;;;3.73;;
7621;SDS011;3852;52.284;8.032;2022-07-09T07:03:42;5.47;;;3.23;;
7621;SDS011;3852;52.284;8.032;2022-07-09T07:06:08;4.17;;;3.10;;
7621;SDS011;3852;52.284;8.032;2022-07-09T07:08:34;5.07;;;3.17;;
7621;SDS011;3852;52.284;8.032;2022-07-09T07:11:00;3.00;;;2.80;;
7621;SDS011;3852;52.284;8.032;2022-07-09T07:13:26;3.40;;;3.00;;
7621;SDS011;3852;52.284;8.032;2022-07-09T07:15:51;3.37;;;3.03;;
7621;SDS011;3852;52.284;8.032;2022-07-09T07:18:17;3.40;;;2.77;;
7621;SDS011;3852;52.284;8.032;2022-07-09T07:20:43;2.60;;;2.37;;
7621;SDS011;3852;52.284;8.032;2022-07-09T07:23:10;2.90;;;2.60;;
7621;SDS011;3852;52.284;8.032;2022-07-09T07:25:36;3.27;;;2.60;;
7621;SDS011;3852;52.284;8.032;2022-07-09T07:28:02;2.73;;;2.50;;
7621;SDS011;3852;52.284;8.032;2022-07-09T07:30:29;2.93;;;2.63;;
7621;SDS011;3852;52.284;8.032;2022-07-09T07:32:58;3.00;;;2.67;;
7621;SDS011;3852;52.284;8.032;2022-07-09T07:35:24;2.60;;;2.40;;
7621;SDS011;3852;52.284;8.032;2022-07-09T07:37:50;3.57;;;3.23;;
7621;SDS011;3852;52.284;8.032;2022-07-09T07:40:16;4.03;;;2.57;;
7621;SDS011;3852;52.284;8.032;2022-07-09T07:42:42;3.20;;;2.23;;
7621;SDS011;3852;52.284;8.032;2022-07-09T07:45:08;3.17;;;2.87;;
7621;SDS011;3852;52.284;8.032;2022-07-09T07:47:35;4.97;;;3.03;;
7621;SDS011;3852;52.284;8.032;2022-07-09T07:50:01;3.40;;;3.10;;
7621;SDS011;3852;52.284;8.032;2022-07-09T07:52:27;3.93;;;3.07;;
7621;SDS011;3852;52.284;8.032;2022-07-09T07:54:53;2.67;;;2.47;;
7621;SDS011;3852;52.284;8.032;2022-07-09T07:57:19;3.57;;;3.27;;
7621;SDS011;3852;52.284;8.032;2022-07-09T07:59:44;5.50;;;3.20;;
7621;SDS011;3852;52.284;8.032;2022-07-09T08:02:11;3.60;;;2.87;;
7621;SDS011;3852;52.284;8.032;2022-07-09T08:04:37;3.13;;;2.63;;
7621;SDS011;3852;52.284;8.032;2022-07-09T08:07:03;3.30;;;2.80;;
7621;SDS011;3852;52.284;8.032;2022-07-09T08:09:29;4.10;;;2.90;;
7621;SDS011;3852;52.284;8.032;2022-07-09T08:11:56;3.30;;;3.00;;
7621;SDS011;3852;52.284;8.032;2022-07-09T08:14:24;3.83;;;3.00;;
7621;SDS011;3852;52.284;8.032;2022-07-09T08:16:50;4.30;;;2.90;;
7621;SDS011;3852;52.284;8.032;2022-07-09T08:19:16;3.47;;;3.23;;
7621;SDS011;3852;52.284;8.032;2022-07-09T08:21:42;4.33;;;3.00;;
7621;SDS011;3852;52.284;8.032;2022-07-09T08:24:07;4.47;;;2.90;;
7621;SDS011;3852;52.284;8.032;2022-07-09T08:26:33;3.63;;;2.93;;
7621;SDS011;3852;52.284;8.032;2022-07-09T08:28:59;3.17;;;2.90;;
7621;SDS011;3852;52.284;8.032;2022-07-09T08:31:25;4.33;;;3.27;;
7621;SDS011;3852;52.284;8.032;2022-07-09T08:33:51;4.13;;;2.70;;
7621;SDS011;3852;52.284;8.032;2022-07-09T08:36:17;5.53;;;3.00;;
7621;SDS011;3852;52.284;8.032;2022-07-09T08:38:43;3.70;;;2.77;;
7621;SDS011;3852;52.284;8.032;2022-07-09T08:41:10;2.80;;;2.57;;
7621;SDS011;3852;52.284;8.032;2022-07-09T08:43:37;3.63;;;2.60;;
7621;SDS011;3852;52.284;8.032;2022-07-09T08:46:04;3.83;;;2.93;;
7621;SDS011;3852;52.284;8.032;2022-07-09T08:48:32;3.27;;;2.80;;
7621;SDS011;3852;52.284;8.032;2022-07-09T08:51:02;3.77;;;2.80;;
7621;SDS011;3852;52.284;8.032;2022-07-09T08:53:28;2.80;;;2.60;;
7621;SDS011;3852;52.284;8.032;2022-07-09T08:55:55;3.23;;;2.90;;
7621;SDS011;3852;52.284;8.032;2022-07-09T08:58:22;2.80;;;2.60;;
7621;SDS011;3852;52.284;8.032;2022-07-09T09:00:49;3.30;;;2.63;;
7621;SDS011;3852;52.284;8.032;2022-07-09T09:03:18;3.10;;;2.63;;
7621;SDS011;3852;52.284;8.032;2022-07-09T09:05:44;3.03;;;2.70;;
7621;SDS011;3852;52.284;8.032;2022-07-09T09:08:24;2.53;;;2.40;;
7621;SDS011;3852;52.284;8.032;2022-07-09T09:10:50;3.87;;;2.60;;
7621;SDS011;3852;52.284;8.032;2022-07-09T09:13:15;3.27;;;2.60;;
7621;SDS011;3852;52.284;8.032;2022-07-09T09:15:42;2.90;;;2.57;;
7621;SDS011;3852;52.284;8.032;2022-07-09T09:18:09;3.53;;;2.97;;
7621;SDS011;3852;52.284;8.032;2022-07-09T09:20:35;2.60;;;2.40;;
7621;SDS011;3852;52.284;8.032;2022-07-09T09:23:02;2.50;;;2.30;;
7621;SDS011;3852;52.284;8.032;2022-07-09T09:25:34;2.57;;;2.33;;
7621;SDS011;3852;52.284;8.032;2022-07-09T09:28:00;2.50;;;2.30;;
7621;SDS011;3852;52.284;8.032;2022-07-09T09:30:27;3.10;;;2.37;;
7621;SDS011;3852;52.284;8.032;2022-07-09T09:32:56;4.33;;;2.83;;
7621;SDS011;3852;52.284;8.032;2022-07-09T09:35:27;2.77;;;2.53;;
7621;SDS011;3852;52.284;8.032;2022-07-09T09:37:57;4.23;;;2.83;;
7621;SDS011;3852;52.284;8.032;2022-07-09T09:40:23;4.07;;;2.73;;
7621;SDS011;3852;52.284;8.032;2022-07-09T09:42:50;2.53;;;2.30;;
7621;SDS011;3852;52.284;8.032;2022-07-09T09:45:17;2.60;;;2.40;;
7621;SDS011;3852;52.284;8.032;2022-07-09T09:47:47;2.60;;;2.40;;
7621;SDS011;3852;52.284;8.032;2022-07-09T09:50:19;2.40;;;2.20;;
7621;SDS011;3852;52.284;8.032;2022-07-09T09:52:50;3.60;;;2.30;;
7621;SDS011;3852;52.284;8.032;2022-07-09T09:55:19;1.97;;;1.87;;
7621;SDS011;3852;52.284;8.032;2022-07-09T09:57:48;2.50;;;2.30;;
7621;SDS011;3852;52.284;8.032;2022-07-09T10:00:15;3.30;;;2.53;;
7621;SDS011;3852;52.284;8.032;2022-07-09T10:02:42;2.50;;;2.17;;
7621;SDS011;3852;52.284;8.032;2022-07-09T10:05:12;2.20;;;2.00;;
7621;SDS011;3852;52.284;8.032;2022-07-09T10:07:39;2.10;;;1.90;;
7621;SDS011;3852;52.284;8.032;2022-07-09T10:10:06;2.77;;;2.00;;
7621;SDS011;3852;52.284;8.032;2022-07-09T10:12:34;2.10;;;1.90;;
7621;SDS011;3852;52.284;8.032;2022-07-09T10:15:19;2.10;;;1.90;;
7621;SDS011;3852;52.284;8.032;2022-07-09T10:17:47;1.70;;;1.60;;
7621;SDS011;3852;52.284;8.032;2022-07-09T10:20:14;1.67;;;1.57;;
7621;SDS011;3852;52.284;8.032;2022-07-09T10:22:41;3.17;;;1.40;;
7621;SDS011;3852;52.284;8.032;2022-07-09T10:25:09;1.50;;;1.40;;
7621;SDS011;3852;52.284;8.032;2022-07-09T10:27:45;2.90;;;1.70;;
7621;SDS011;3852;52.284;8.032;2022-07-09T10:30:29;1.97;;;1.60;;
7621;SDS011;3852;52.284;8.032;2022-07-09T10:33:04;2.20;;;1.70;;
7621;SDS011;3852;52.284;8.032;2022-07-09T10:35:48;2.53;;;1.70;;
7621;SDS011;3852;52.284;8.032;2022-07-09T10:38:19;2.97;;;1.50;;
7621;SDS011;3852;52.284;8.032;2022-07-09T10:40:58;3.77;;;1.40;;
7621;SDS011;3852;52.284;8.032;2022-07-09T10:43:38;1.97;;;1.80;;
7621;SDS011;3852;52.284;8.032;2022-07-09T10:46:14;2.00;;;1.50;;
7621;SDS011;3852;52.284;8.032;2022-07-09T10:48:41;1.50;;;1.40;;
7621;SDS011;3852;52.284;8.032;2022-07-09T10:51:15;4.40;;;1.50;;
7621;SDS011;3852;52.284;8.032;2022-07-09T10:53:47;1.43;;;1.43;;
7621;SDS011;3852;52.284;8.032;2022-07-09T10:56:20;1.47;;;1.47;;
7621;SDS011;3852;52.284;8.032;2022-07-09T10:58:47;1.60;;;1.47;;
7621;SDS011;3852;52.284;8.032;2022-07-09T11:01:21;1.30;;;1.20;;
7621;SDS011;3852;52.284;8.032;2022-07-09T11:03:50;1.70;;;1.50;;
7621;SDS011;3852;52.284;8.032;2022-07-09T11:06:16;1.53;;;1.50;;
7621;SDS011;3852;52.284;8.032;2022-07-09T11:08:42;1.60;;;1.50;;
7621;SDS011;3852;52.284;8.032;2022-07-09T11:11:08;1.40;;;1.40;;
7621;SDS011;3852;52.284;8.032;2022-07-09T11:13:34;1.40;;;1.40;;
7621;SDS011;3852;52.284;8.032;2022-07-09T11:16:00;1.80;;;1.70;;
7621;SDS011;3852;52.284;8.032;2022-07-09T11:18:27;1.70;;;1.30;;
7621;SDS011;3852;52.284;8.032;2022-07-09T11:20:54;1.40;;;1.40;;
7621;SDS011;3852;52.284;8.032;2022-07-09T11:23:20;1.50;;;1.40;;
7621;SDS011;3852;52.284;8.032;2022-07-09T11:25:45;1.47;;;1.37;;
7621;SDS011;3852;52.284;8.032;2022-07-09T11:28:18;1.83;;;1.30;;
7621;SDS011;3852;52.284;8.032;2022-07-09T11:30:45;1.40;;;1.33;;
7621;SDS011;3852;52.284;8.032;2022-07-09T11:33:23;1.37;;;1.20;;
7621;SDS011;3852;52.284;8.032;2022-07-09T11:35:49;2.60;;;1.50;;
7621;SDS011;3852;52.284;8.032;2022-07-09T11:38:15;1.33;;;1.23;;
7621;SDS011;3852;52.284;8.032;2022-07-09T11:40:41;1.50;;;1.50;;
7621;SDS011;3852;52.284;8.032;2022-07-09T11:43:15;1.43;;;1.40;;
7621;SDS011;3852;52.284;8.032;2022-07-09T11:45:51;1.30;;;1.30;;
7621;SDS011;3852;52.284;8.032;2022-07-09T11:48:18;1.50;;;1.40;;
7621;SDS011;3852;52.284;8.032;2022-07-09T11:50:44;1.53;;;1.43;;
7621;SDS011;3852;52.284;8.032;2022-07-09T11:53:20;1.90;;;1.50;;
7621;SDS011;3852;52.284;8.032;2022-07-09T11:55:59;1.30;;;1.20;;
7621;SDS011;3852;52.284;8.032;2022-07-09T11:58:28;1.40;;;1.30;;
7621;SDS011;3852;52.284;8.032;2022-07-09T12:00:55;2.10;;;1.50;;
7621;SDS011;3852;52.284;8.032;2022-07-09T12:03:24;1.20;;;1.10;;
7621;SDS011;3852;52.284;8.032;2022-07-09T12:05:52;1.10;;;1.10;;
7621;SDS011;3852;52.284;8.032;2022-07-09T12:08:26;1.10;;;1.10;;
7621;SDS011;3852;52.284;8.032;2022-07-09T12:10:54;1.00;;;1.00;;
7621;SDS011;3852;52.284;8.032;2022-07-09T12:13:23;1.40;;;1.30;;
7621;SDS011;3852;52.284;8.032;2022-07-09T12:15:49;1.30;;;1.20;;
7621;SDS011;3852;52.284;8.032;2022-07-09T12:18:14;1.33;;;1.27;;
7621;SDS011;3852;52.284;8.032;2022-07-09T12:20:40;1.10;;;1.10;;
7621;SDS011;3852;52.284;8.032;2022-07-09T12:23:06;1.20;;;1.10;;
7621;SDS011;3852;52.284;8.032;2022-07-09T12:25:32;0.90;;;0.90;;
7621;SDS011;3852;52.284;8.032;2022-07-09T12:27:58;1.43;;;1.10;;
7621;SDS011;3852;52.284;8.032;2022-07-09T12:30:24;1.57;;;1.40;;
7621;SDS011;3852;52.284;8.032;2022-07-09T12:32:50;1.50;;;1.50;;
7621;SDS011;3852;52.284;8.032;2022-07-09T12:35:15;2.50;;;1.60;;
7621;SDS011;3852;52.284;8.032;2022-07-09T12:37:42;3.03;;;1.43;;
7621;SDS011;3852;52.284;8.032;2022-07-09T12:40:08;3.33;;;1.70;;
7621;SDS011;3852;52.284;8.032;2022-07-09T12:42:38;1.77;;;1.30;;
7621;SDS011;3852;52.284;8.032;2022-07-09T12:45:04;1.53;;;1.30;;
7621;SDS011;3852;52.284;8.032;2022-07-09T12:47:31;1.77;;;1.67;;
7621;SDS011;3852;52.284;8.032;2022-07-09T12:49:57;1.80;;;1.70;;
7621;SDS011;3852;52.284;8.032;2022-07-09T12:52:23;1.80;;;1.40;;
7621;SDS011;3852;52.284;8.032;2022-07-09T12:54:49;1.50;;;1.50;;
7621;SDS011;3852;52.284;8.032;2022-07-09T12:57:14;1.50;;;1.40;;
7621;SDS011;3852;52.284;8.032;2022-07-09T12:59:40;1.60;;;1.50;;
7621;SDS011;3852;52.284;8.032;2022-07-09T13:02:06;1.40;;;1.30;;
7621;SDS011;3852;52.284;8.032;2022-07-09T13:04:32;1.50;;;1.40;;
7621;SDS011;3852;52.284;8.032;2022-07-09T13:06:59;2.60;;;1.43;;
7621;SDS011;3852;52.284;8.032;2022-07-09T13:09:25;1.50;;;1.40;;
7621;SDS011;3852;52.284;8.032;2022-07-09T13:11:51;1.50;;;1.40;;
7621;SDS011;3852;52.284;8.032;2022-07-09T13:14:17;2.20;;;1.40;;
7621;SDS011;3852;52.284;8.032;2022-07-09T13:16:42;1.80;;;1.33;;
7621;SDS011;3852;52.284;8.032;2022-07-09T13:19:08;1.50;;;1.40;;
7621;SDS011;3852;52.284;8.032;2022-07-09T13:21:36;1.60;;;1.50;;
7621;SDS011;3852;52.284;8.032;2022-07-09T13:24:02;1.60;;;1.50;;
7621;SDS011;3852;52.284;8.032;2022-07-09T13:26:28;2.77;;;1.73;;
7621;SDS011;3852;52.284;8.032;2022-07-09T13:28:54;2.77;;;1.50;;
7621;SDS011;3852;52.284;8.032;2022-07-09T13:31:20;2.53;;;1.30;;
7621;SDS011;3852;52.284;8.032;2022-07-09T13:33:46;1.63;;;1.47;;
7621;SDS011;3852;52.284;8.032;2022-07-09T13:36:12;3.87;;;2.40;;
7621;SDS011;3852;52.284;8.032;2022-07-09T13:38:38;2.80;;;1.60;;
7621;SDS011;3852;52.284;8.032;2022-07-09T13:41:04;2.40;;;1.50;;
7621;SDS011;3852;52.284;8.032;2022-07-09T13:43:30;1.57;;;1.47;;
7621;SDS011;3852;52.284;8.032;2022-07-09T13:45:57;1.90;;;1.50;;
7621;SDS011;3852;52.284;8.032;2022-07-09T13:48:24;2.43;;;1.53;;
7621;SDS011;3852;52.284;8.032;2022-07-09T13:50:51;2.63;;;1.40;;
7621;SDS011;3852;52.284;8.032;2022-07-09T13:53:17;2.00;;;1.50;;
7621;SDS011;3852;52.284;8.032;2022-07-09T13:55:43;2.37;;;1.57;;
7621;SDS011;3852;52.284;8.032;2022-07-09T13:58:10;2.20;;;1.43;;
7621;SDS011;3852;52.284;8.032;2022-07-09T14:00:36;1.40;;;1.30;;
7621;SDS011;3852;52.284;8.032;2022-07-09T14:03:02;3.00;;;1.43;;
7621;SDS011;3852;52.284;8.032;2022-07-09T14:05:28;3.13;;;1.53;;
7621;SDS011;3852;52.284;8.032;2022-07-09T14:07:54;1.70;;;1.50;;
7621;SDS011;3852;52.284;8.032;2022-07-09T14:10:21;3.53;;;1.80;;
7621;SDS011;3852;52.284;8.032;2022-07-09T14:12:48;2.77;;;1.70;;
7621;SDS011;3852;52.284;8.032;2022-07-09T14:15:14;1.63;;;1.50;;
7621;SDS011;3852;52.284;8.032;2022-07-09T14:17:40;1.70;;;1.47;;
7621;SDS011;3852;52.284;8.032;2022-07-09T14:20:06;3.03;;;1.67;;
7621;SDS011;3852;52.284;8.032;2022-07-09T14:22:33;1.43;;;1.30;;
7621;SDS011;3852;52.284;8.032;2022-07-09T14:24:59;2.83;;;1.60;;
7621;SDS011;3852;52.284;8.032;2022-07-09T14:27:25;1.93;;;1.63;;
7621;SDS011;3852;52.284;8.032;2022-07-09T14:29:50;1.57;;;1.47;;
7621;SDS011;3852;52.284;8.032;2022-07-09T14:32:16;1.80;;;1.57;;
7621;SDS011;3852;52.284;8.032;2022-07-09T14:34:42;3.63;;;1.80;;
7621;SDS011;3852;52.284;8.032;2022-07-09T14:37:08;3.40;;;1.70;;
7621;SDS011;3852;52.284;8.032;2022-07-09T14:39:34;2.13;;;1.47;;
7621;SDS011;3852;52.284;8.032;2022-07-09T14:42:00;2.03;;;1.50;;
7621;SDS011;3852;52.284;8.032;2022-07-09T14:44:25;2.40;;;1.53;;
7621;SDS011;3852;52.284;8.032;2022-07-09T14:46:55;1.93;;;1.57;;
7621;SDS011;3852;52.284;8.032;2022-07-09T14:49:24;1.70;;;1.30;;
7621;SDS011;3852;52.284;8.032;2022-07-09T14:51:50;2.20;;;1.60;;
7621;SDS011;3852;52.284;8.032;2022-07-09T14:54:16;3.33;;;1.80;;
7621;SDS011;3852;52.284;8.032;2022-07-09T14:56:43;4.80;;;1.73;;
7621;SDS011;3852;52.284;8.032;2022-07-09T14:59:08;3.40;;;1.63;;
7621;SDS011;3852;52.284;8.032;2022-07-09T15:01:36;3.43;;;1.40;;
7621;SDS011;3852;52.284;8.032;2022-07-09T15:04:02;1.73;;;1.50;;